createdAt,value
2022-08-03T00:01:54.558Z,58.60
2022-08-03T00:04:33.966Z,58.50
2022-08-03T00:07:05.248Z,58.90
2022-08-03T00:09:36.103Z,58.90
2022-08-03T00:12:07.256Z,58.30
2022-08-03T00:14:38.038Z,59.60
2022-08-03T00:17:08.734Z,58.20
2022-08-03T00:19:41.129Z,58.40
2022-08-03T00:22:12.104Z,57.70
2022-08-03T00:24:42.842Z,58.50
2022-08-03T00:27:16.622Z,57.60
2022-08-03T00:29:57.668Z,59.40
2022-08-03T00:32:32.143Z,58.90
2022-08-03T00:35:08.310Z,60.30
2022-08-03T00:37:41.951Z,59.10
2022-08-03T00:40:14.844Z,58.40
2022-08-03T00:42:53.042Z,57.70
2022-08-03T00:45:27.132Z,58.80
2022-08-03T00:47:58.413Z,58.00
2022-08-03T00:50:33.215Z,59.20
2022-08-03T00:53:04.692Z,59.70
2022-08-03T00:55:35.663Z,58.60
2022-08-03T00:58:07.529Z,58.40
2022-08-03T01:00:41.220Z,58.90
2022-08-03T01:03:13.473Z,59.60
2022-08-03T01:05:55.149Z,59.90
2022-08-03T01:08:37.127Z,60.10
2022-08-03T01:11:13.335Z,60.00
2022-08-03T01:14:03.814Z,61.80
2022-08-03T01:16:55.336Z,60.90
2022-08-03T01:19:43.449Z,62.20
2022-08-03T01:22:34.790Z,62.20
2022-08-03T01:25:11.126Z,62.80
2022-08-03T01:27:54.796Z,62.70
2022-08-03T01:30:30.843Z,63.80
2022-08-03T01:33:07.196Z,64.30
2022-08-03T01:35:42.101Z,65.30
2022-08-03T01:38:16.282Z,64.80
2022-08-03T01:40:49.778Z,65.50
2022-08-03T01:43:55.217Z,66.40
2022-08-03T01:46:15.672Z,66.00
2022-08-03T01:48:47.605Z,67.50
2022-08-03T01:51:21.089Z,67.60
2022-08-03T01:53:55.568Z,68.00
2022-08-03T01:56:28.616Z,68.70
2022-08-03T01:59:01.562Z,69.30
2022-08-03T02:02:16.076Z,68.50
2022-08-03T02:04:28.698Z,68.10
2022-08-03T02:07:03.120Z,70.00
2022-08-03T02:09:35.004Z,70.30
2022-08-03T02:12:06.450Z,70.30
2022-08-03T02:14:37.861Z,70.40
2022-08-03T02:17:11.323Z,70.60
2022-08-03T02:19:43.343Z,71.10
2022-08-03T02:22:16.916Z,71.00
2022-08-03T02:24:51.161Z,71.90
2022-08-03T02:27:25.084Z,72.50
2022-08-03T02:29:58.950Z,72.60
2022-08-03T02:32:34.460Z,72.30
2022-08-03T02:35:07.843Z,72.00
2022-08-03T02:37:45.063Z,72.50
2022-08-03T02:40:23.100Z,72.50
2022-08-03T02:42:58.793Z,72.20
2022-08-03T02:45:31.500Z,73.30
2022-08-03T02:48:07.746Z,74.10
2022-08-03T02:50:39.516Z,73.90
2022-08-03T02:53:12.400Z,74.70
2022-08-03T02:55:45.826Z,75.30
2022-08-03T02:58:20.044Z,75.70
2022-08-03T03:00:52.615Z,76.80
2022-08-03T03:03:26.410Z,76.70
2022-08-03T03:06:00.441Z,78.30
2022-08-03T03:08:37.128Z,77.70
2022-08-03T03:11:12.269Z,78.10
2022-08-03T03:13:44.943Z,78.30
2022-08-03T03:16:17.167Z,79.30
2022-08-03T03:18:50.631Z,79.30
2022-08-03T03:21:23.691Z,80.50
2022-08-03T03:23:55.294Z,81.20
2022-08-03T03:26:26.205Z,81.50
2022-08-03T03:28:57.320Z,82.00
2022-08-03T03:31:28.219Z,81.80
2022-08-03T03:34:01.736Z,81.60
2022-08-03T03:36:32.499Z,81.60
2022-08-03T03:39:15.444Z,82.40
2022-08-03T03:41:47.229Z,82.10
2022-08-03T03:44:18.375Z,82.60
2022-08-03T03:46:49.308Z,82.80
2022-08-03T03:49:21.872Z,83.20
2022-08-03T03:51:55.392Z,83.40
2022-08-03T03:54:29.051Z,84.50
2022-08-03T03:57:00.288Z,85.10
2022-08-03T03:59:31.047Z,85.50
2022-08-03T04:02:06.943Z,85.70
2022-08-03T04:04:56.561Z,86.00
2022-08-03T04:07:47.216Z,86.10
2022-08-03T04:10:40.584Z,87.10
2022-08-03T04:13:14.947Z,88.20
2022-08-03T04:15:46.405Z,88.10
2022-08-03T04:18:18.973Z,88.90
2022-08-03T04:20:53.094Z,88.50
2022-08-03T04:23:27.304Z,87.60
2022-08-03T04:26:00.334Z,87.30
2022-08-03T04:28:32.598Z,86.70
2022-08-03T04:31:06.197Z,85.40
2022-08-03T04:33:40.784Z,82.20
2022-08-03T04:36:17.433Z,82.20
2022-08-03T04:39:01.925Z,80.70
2022-08-03T04:42:07.244Z,80.70
2022-08-03T04:44:28.355Z,80.70
2022-08-03T04:47:00.660Z,80.20
2022-08-03T04:49:32.789Z,80.00
2022-08-03T04:52:05.614Z,79.70
2022-08-03T04:54:50.031Z,78.50
2022-08-03T04:57:23.078Z,78.00
2022-08-03T05:00:02.203Z,78.50
2022-08-03T05:02:35.852Z,78.20
2022-08-03T05:05:07.897Z,79.60
2022-08-03T05:07:40.295Z,81.00
2022-08-03T05:10:15.900Z,79.40
2022-08-03T05:12:52.500Z,80.70
2022-08-03T05:15:23.330Z,81.20
2022-08-03T05:17:54.023Z,81.60
2022-08-03T05:20:24.903Z,81.70
2022-08-03T05:22:57.251Z,82.30
2022-08-03T05:25:28.277Z,82.30
2022-08-03T05:27:59.099Z,82.20
2022-08-03T05:30:33.996Z,81.10
2022-08-03T05:33:06.179Z,78.00
2022-08-03T05:35:57.623Z,76.70
2022-08-03T05:38:34.832Z,76.50
2022-08-03T05:41:22.096Z,78.30
2022-08-03T05:43:54.916Z,77.70
2022-08-03T05:46:26.367Z,77.30
2022-08-03T05:48:57.233Z,77.70
2022-08-03T05:51:28.561Z,78.40
2022-08-03T05:54:00.896Z,79.30
2022-08-03T05:56:32.675Z,79.90
2022-08-03T05:59:22.481Z,81.80
2022-08-03T06:01:54.232Z,82.20
2022-08-03T06:04:25.216Z,82.50
2022-08-03T06:06:55.963Z,82.80
2022-08-03T06:10:34.547Z,84.30
2022-08-03T06:12:19.236Z,85.30
2022-08-03T06:14:50.117Z,84.90
2022-08-03T06:17:20.925Z,85.60
2022-08-03T06:19:51.645Z,86.00
2022-08-03T06:22:22.911Z,86.40
2022-08-03T06:25:04.102Z,87.10
2022-08-03T06:27:37.095Z,87.30
2022-08-03T06:30:09.387Z,87.30
2022-08-03T06:32:41.661Z,88.40
2022-08-03T06:35:23.148Z,88.90
2022-08-03T06:37:55.348Z,90.00
2022-08-03T06:40:32.085Z,90.10
2022-08-03T06:43:04.013Z,90.60
2022-08-03T06:45:35.330Z,90.50
2022-08-03T06:48:07.499Z,90.60
2022-08-03T06:50:40.101Z,91.30
2022-08-03T06:53:19.740Z,91.50
2022-08-03T06:55:55.212Z,91.70
2022-08-03T06:58:26.205Z,92.10
2022-08-03T07:00:57.200Z,92.50
2022-08-03T07:03:28.024Z,93.00
2022-08-03T07:05:58.762Z,93.10
2022-08-03T07:08:33.468Z,94.00
2022-08-03T07:11:06.985Z,94.00
2022-08-03T07:13:37.707Z,94.40
2022-08-03T07:16:08.929Z,94.80
2022-08-03T07:18:41.788Z,94.80
2022-08-03T07:21:13.500Z,95.50
2022-08-03T07:23:44.341Z,96.00
2022-08-03T07:26:16.699Z,96.20
2022-08-03T07:28:47.456Z,96.70
2022-08-03T07:31:18.139Z,97.30
2022-08-03T07:33:48.922Z,97.20
2022-08-03T07:36:19.639Z,97.50
2022-08-03T07:38:50.402Z,98.20
2022-08-03T07:41:22.737Z,98.60
2022-08-03T07:43:53.504Z,98.80
2022-08-03T07:46:24.240Z,98.90
2022-08-03T07:48:57.586Z,98.80
2022-08-03T07:51:28.339Z,99.20
2022-08-03T07:53:59.937Z,99.90
2022-08-03T07:56:32.539Z,99.90
2022-08-03T07:59:03.833Z,99.90
2022-08-03T08:01:37.457Z,99.90
2022-08-03T08:04:09.474Z,99.90
2022-08-03T08:06:40.322Z,99.90
2022-08-03T08:09:12.401Z,99.90
2022-08-03T08:11:44.769Z,99.90
2022-08-03T08:14:15.502Z,99.90
2022-08-03T08:16:46.236Z,99.90
2022-08-03T08:19:17.587Z,99.90
2022-08-03T08:21:53.244Z,99.90
2022-08-03T08:24:33.116Z,99.90
2022-08-03T08:27:06.940Z,99.90
2022-08-03T08:29:37.665Z,99.90
2022-08-03T08:32:18.885Z,99.90
2022-08-03T08:34:49.861Z,99.90
2022-08-03T08:37:20.632Z,99.90
2022-08-03T08:39:51.388Z,99.90
2022-08-03T08:42:23.724Z,99.90
2022-08-03T08:44:55.061Z,99.90
2022-08-03T08:47:27.930Z,99.90
2022-08-03T08:50:09.650Z,99.90
2022-08-03T08:52:44.222Z,99.90
2022-08-03T08:55:18.037Z,99.90
2022-08-03T08:57:53.173Z,99.90
2022-08-03T09:00:23.896Z,99.90
2022-08-03T09:02:54.660Z,99.90
2022-08-03T09:05:53.700Z,99.90
2022-08-03T09:08:18.187Z,99.90
2022-08-03T09:10:48.964Z,99.90
2022-08-03T09:13:21.534Z,99.90
2022-08-03T09:16:00.533Z,99.90
2022-08-03T09:18:33.296Z,99.90
2022-08-03T09:21:36.008Z,99.90
2022-08-03T09:24:16.526Z,99.90
2022-08-03T09:26:56.585Z,99.90
2022-08-03T09:29:29.069Z,99.90
2022-08-03T09:32:05.176Z,99.90
2022-08-03T09:34:36.290Z,99.90
2022-08-03T09:37:17.373Z,99.90
2022-08-03T09:39:48.341Z,99.90
2022-08-03T09:42:23.779Z,99.90
2022-08-03T09:44:56.860Z,99.90
2022-08-03T09:47:32.485Z,99.90
2022-08-03T09:50:04.508Z,99.90
2022-08-03T09:52:50.198Z,99.90
2022-08-03T09:56:35.490Z,99.90
2022-08-03T09:58:16.196Z,99.90
2022-08-03T10:01:06.965Z,99.90
2022-08-03T10:04:02.683Z,99.90
2022-08-03T10:06:31.479Z,99.90
2022-08-03T10:09:12.833Z,99.90
2022-08-03T10:11:44.251Z,99.90
2022-08-03T10:14:19.838Z,99.90
2022-08-03T10:16:52.716Z,99.90
2022-08-03T10:19:23.452Z,99.90
2022-08-03T10:21:58.420Z,99.90
2022-08-03T10:24:32.232Z,99.90
2022-08-03T10:27:08.223Z,99.90
2022-08-03T10:29:42.041Z,99.90
2022-08-03T10:32:18.552Z,99.90
2022-08-03T10:34:59.793Z,99.90
2022-08-03T10:37:35.330Z,99.90
2022-08-03T10:40:06.838Z,99.90
2022-08-03T10:42:39.558Z,99.90
2022-08-03T10:45:21.657Z,99.90
2022-08-03T10:47:55.486Z,99.90
2022-08-03T10:50:27.776Z,99.90
2022-08-03T10:53:01.894Z,99.90
2022-08-03T10:55:53.204Z,99.90
2022-08-03T10:58:57.545Z,99.90
2022-08-03T11:02:00.866Z,99.90
2022-08-03T11:04:33.629Z,99.90
2022-08-03T11:07:24.780Z,99.90
2022-08-03T11:09:56.590Z,99.90
2022-08-03T11:12:31.406Z,99.90
2022-08-03T11:15:04.951Z,99.90
2022-08-03T11:17:45.813Z,99.90
2022-08-03T11:20:19.790Z,99.90
2022-08-03T11:22:55.233Z,99.90
2022-08-03T11:25:53.155Z,99.90
2022-08-03T11:28:30.648Z,99.90
2022-08-03T11:31:54.062Z,99.90
2022-08-03T11:34:25.263Z,99.90
2022-08-03T11:37:32.985Z,99.90
2022-08-03T11:40:04.587Z,99.90
2022-08-03T11:42:48.824Z,99.90
2022-08-03T11:45:20.703Z,99.90
2022-08-03T11:47:56.427Z,99.90
2022-08-03T11:50:27.248Z,99.90
2022-08-03T11:52:59.625Z,99.90
2022-08-03T11:55:33.231Z,99.90
2022-08-03T11:59:11.319Z,99.90
2022-08-03T12:00:55.213Z,99.90
2022-08-03T12:03:26.001Z,99.90
2022-08-03T12:05:57.398Z,99.90
2022-08-03T12:08:36.734Z,99.90
2022-08-03T12:11:08.829Z,99.90
2022-08-03T12:14:45.690Z,99.90
2022-08-03T12:16:35.245Z,99.90
2022-08-03T12:19:08.875Z,99.90
2022-08-03T12:21:56.761Z,99.90
2022-08-03T12:24:42.452Z,99.90
2022-08-03T12:27:13.469Z,99.90
2022-08-03T12:29:44.252Z,99.90
2022-08-03T12:32:29.858Z,99.90
2022-08-03T12:35:02.242Z,99.90
2022-08-03T12:37:33.434Z,99.90
2022-08-03T12:40:10.794Z,99.90
2022-08-03T12:42:43.100Z,99.90
2022-08-03T12:45:24.607Z,99.90
2022-08-03T12:47:59.682Z,99.90
2022-08-03T12:50:32.464Z,99.90
2022-08-03T12:53:05.393Z,99.90
2022-08-03T12:56:04.388Z,99.90
2022-08-03T12:58:36.716Z,99.90
2022-08-03T13:01:10.627Z,99.90
2022-08-03T13:03:45.838Z,99.90
2022-08-03T13:06:21.989Z,99.90
2022-08-03T13:08:53.704Z,99.90
2022-08-03T13:11:53.594Z,99.90
2022-08-03T13:14:20.155Z,99.90
2022-08-03T13:16:51.630Z,99.90
2022-08-03T13:19:22.357Z,99.90
2022-08-03T13:22:03.633Z,99.90
2022-08-03T13:24:36.233Z,99.90
2022-08-03T13:28:02.454Z,99.90
2022-08-03T13:29:59.894Z,99.90
2022-08-03T13:32:30.678Z,99.90
2022-08-03T13:35:01.593Z,99.90
2022-08-03T13:37:32.992Z,99.90
2022-08-03T13:40:05.493Z,99.90
2022-08-03T13:42:39.004Z,99.90
2022-08-03T13:45:11.370Z,99.90
2022-08-03T13:47:42.139Z,99.90
2022-08-03T13:50:12.903Z,99.90
2022-08-03T13:52:43.672Z,99.90
2022-08-03T13:55:14.642Z,99.90
2022-08-03T13:58:03.905Z,99.90
2022-08-03T14:00:36.279Z,99.90
2022-08-03T14:03:13.729Z,99.90
2022-08-03T14:05:45.416Z,99.90
2022-08-03T14:08:16.246Z,99.90
2022-08-03T14:10:49.469Z,99.90
2022-08-03T14:13:21.884Z,99.90
2022-08-03T14:15:54.246Z,99.90
2022-08-03T14:18:27.784Z,99.90
2022-08-03T14:21:05.562Z,99.90
2022-08-03T14:23:38.311Z,99.90
2022-08-03T14:26:09.786Z,99.90
2022-08-03T14:28:42.129Z,99.90
2022-08-03T14:32:09.047Z,99.90
2022-08-03T14:34:05.580Z,99.90
2022-08-03T14:36:36.612Z,99.90
2022-08-03T14:39:07.490Z,99.90
2022-08-03T14:41:38.380Z,99.90
2022-08-03T14:44:10.740Z,99.90
2022-08-03T14:46:41.507Z,99.90
2022-08-03T14:50:36.511Z,99.90
2022-08-03T14:52:03.496Z,99.90
2022-08-03T14:54:34.228Z,97.30
2022-08-03T14:57:04.988Z,93.60
2022-08-03T14:59:56.711Z,91.80
2022-08-03T15:02:29.178Z,88.50
2022-08-03T15:04:59.934Z,85.20
2022-08-03T15:07:30.649Z,82.70
2022-08-03T15:10:02.290Z,80.60
2022-08-03T15:12:33.260Z,80.00
2022-08-03T15:15:05.646Z,76.70
2022-08-03T15:17:36.344Z,76.00
2022-08-03T15:20:25.439Z,72.90
2022-08-03T15:22:59.768Z,73.00
2022-08-03T15:26:28.550Z,69.30
2022-08-03T15:28:21.330Z,68.50
2022-08-03T15:30:55.464Z,68.20
2022-08-03T15:33:26.171Z,68.20
2022-08-03T15:35:57.074Z,67.90
2022-08-03T15:38:28.057Z,65.50
2022-08-03T15:40:59.776Z,64.90
2022-08-03T15:43:30.490Z,65.90
2022-08-03T15:46:28.178Z,60.30
2022-08-03T15:48:53.553Z,62.70
2022-08-03T15:51:24.237Z,63.80
2022-08-03T15:53:55.047Z,62.40
2022-08-03T15:56:27.180Z,62.00
2022-08-03T15:59:09.239Z,63.00
2022-08-03T16:01:45.489Z,59.50
2022-08-03T16:04:16.304Z,57.80
2022-08-03T16:06:47.005Z,56.90
2022-08-03T16:09:23.642Z,58.20
2022-08-03T16:12:16.095Z,58.80
2022-08-03T16:14:52.807Z,58.50
2022-08-03T16:17:25.894Z,60.50
2022-08-03T16:19:56.904Z,58.90
2022-08-03T16:22:27.885Z,57.80
2022-08-03T16:24:58.626Z,57.60
2022-08-03T16:27:37.189Z,58.80
2022-08-03T16:30:20.392Z,59.30
2022-08-03T16:32:52.825Z,58.60
2022-08-03T16:35:25.062Z,56.00
2022-08-03T16:37:56.785Z,56.40
2022-08-03T16:40:28.893Z,58.90
2022-08-03T16:42:59.631Z,59.50
2022-08-03T16:45:30.455Z,57.50
2022-08-03T16:48:05.479Z,58.00
2022-08-03T16:50:37.850Z,57.80
2022-08-03T16:53:09.807Z,57.10
2022-08-03T16:55:53.694Z,55.80
2022-08-03T16:58:41.359Z,55.70
2022-08-03T17:01:22.477Z,54.50
2022-08-03T17:04:03.589Z,53.80
2022-08-03T17:06:38.581Z,53.90
2022-08-03T17:09:18.079Z,51.50
2022-08-03T17:11:50.145Z,50.80
2022-08-03T17:14:23.454Z,51.40
2022-08-03T17:17:03.803Z,50.70
2022-08-03T17:19:37.824Z,50.20
2022-08-03T17:22:16.748Z,52.10
2022-08-03T17:24:49.835Z,50.80
2022-08-03T17:28:48.358Z,52.90
2022-08-03T17:30:18.918Z,52.00
2022-08-03T17:32:57.073Z,51.10
2022-08-03T17:35:34.475Z,51.10
2022-08-03T17:38:13.710Z,50.80
2022-08-03T17:40:49.983Z,50.40
2022-08-03T17:46:14.090Z,48.60
2022-08-03T17:48:44.896Z,49.30
2022-08-03T17:51:24.611Z,51.50
2022-08-03T17:54:04.605Z,50.80
2022-08-03T17:56:59.809Z,49.10
2022-08-03T17:59:58.295Z,49.60
2022-08-03T18:02:58.998Z,50.30
2022-08-03T18:06:11.407Z,52.70
2022-08-03T18:08:29.101Z,50.70
2022-08-03T18:11:14.988Z,48.60
2022-08-03T18:13:57.752Z,49.20
2022-08-03T18:16:36.049Z,50.60
2022-08-03T18:19:14.476Z,51.30
2022-08-03T18:22:03.479Z,46.20
2022-08-03T18:24:37.103Z,46.80
2022-08-03T18:27:08.856Z,45.90
2022-08-03T18:29:40.048Z,45.30
2022-08-03T18:32:21.889Z,48.30
2022-08-03T18:34:59.737Z,47.50
2022-08-03T18:37:32.139Z,48.30
2022-08-03T18:40:26.007Z,50.60
2022-08-03T18:42:59.191Z,49.30
2022-08-03T18:45:58.219Z,49.30
2022-08-03T18:48:35.099Z,50.40
2022-08-03T18:51:12.526Z,47.80
2022-08-03T18:54:07.449Z,49.10
2022-08-03T18:56:48.860Z,50.40
2022-08-03T18:59:30.046Z,48.30
2022-08-03T19:02:09.247Z,46.50
2022-08-03T19:04:47.260Z,48.90
2022-08-03T19:07:27.102Z,48.30
2022-08-03T19:10:11.563Z,48.60
2022-08-03T19:12:53.173Z,47.10
2022-08-03T19:15:36.173Z,48.80
2022-08-03T19:18:10.885Z,50.40
2022-08-03T19:20:42.656Z,49.60
2022-08-03T19:23:18.972Z,48.30
2022-08-03T19:25:50.855Z,48.10
2022-08-03T19:28:29.751Z,48.70
2022-08-03T19:31:06.418Z,50.70
2022-08-03T19:33:55.913Z,49.60
2022-08-03T19:36:29.912Z,48.00
2022-08-03T19:39:03.323Z,50.60
2022-08-03T19:41:42.315Z,50.40
2022-08-03T19:44:21.657Z,50.70
2022-08-03T19:46:57.320Z,49.70
2022-08-03T19:50:04.748Z,51.10
2022-08-03T19:52:24.545Z,51.20
2022-08-03T19:55:05.843Z,53.20
2022-08-03T19:57:38.197Z,50.30
2022-08-03T20:00:13.975Z,51.80
2022-08-03T20:02:45.129Z,54.70
2022-08-03T20:05:16.123Z,54.10
2022-08-03T20:10:38.356Z,53.70
2022-08-03T20:13:09.821Z,54.90
2022-08-03T20:15:43.587Z,55.80
2022-08-03T20:18:17.173Z,56.00
2022-08-03T20:20:51.356Z,54.20
2022-08-03T20:23:23.587Z,55.70
2022-08-03T20:26:00.022Z,54.60
2022-08-03T20:28:50.390Z,52.70
2022-08-03T20:31:32.632Z,52.80
2022-08-03T20:34:09.118Z,55.60
2022-08-03T20:36:40.009Z,55.60
2022-08-03T20:39:11.199Z,52.90
2022-08-03T20:41:43.455Z,54.70
2022-08-03T20:44:14.176Z,54.50
2022-08-03T20:46:52.916Z,52.60
2022-08-03T20:49:46.294Z,53.10
2022-08-03T20:52:18.434Z,54.00
2022-08-03T20:54:50.228Z,55.90
2022-08-03T20:57:22.733Z,54.50
2022-08-03T20:59:54.197Z,54.30
2022-08-03T21:02:30.232Z,55.00
2022-08-03T21:05:03.621Z,54.60
2022-08-03T21:08:03.686Z,55.50
2022-08-03T21:10:37.847Z,52.60
2022-08-03T21:12:54.884Z,48.70
2022-08-03T21:13:03.562Z,53.70
2022-08-03T21:13:17.828Z,54.10
2022-08-03T21:16:12.687Z,56.70
2022-08-03T21:18:48.049Z,55.20
2022-08-03T21:21:20.644Z,57.50
2022-08-03T21:23:53.696Z,56.80
2022-08-03T21:26:26.607Z,55.10
2022-08-03T21:28:59.058Z,57.10
2022-08-03T21:31:30.168Z,56.20
2022-08-03T21:34:05.063Z,54.60
2022-08-03T21:36:38.623Z,55.00
2022-08-03T21:39:11.300Z,55.10
2022-08-03T21:41:43.396Z,54.50
2022-08-03T21:44:14.373Z,54.40
2022-08-03T21:46:46.747Z,56.10
2022-08-03T21:50:04.515Z,57.00
2022-08-03T21:52:13.305Z,56.90
2022-08-03T21:54:45.766Z,55.00
2022-08-03T21:57:22.314Z,56.70
2022-08-03T21:59:57.434Z,55.80
2022-08-03T22:02:32.336Z,55.70
2022-08-03T22:05:06.076Z,53.90
2022-08-03T22:07:37.376Z,51.10
2022-08-03T22:10:09.426Z,53.80
2022-08-03T22:12:41.152Z,56.10
2022-08-03T22:15:13.869Z,54.30
2022-08-03T22:17:55.487Z,54.70
2022-08-03T22:20:30.150Z,57.30
2022-08-03T22:23:04.741Z,58.30
2022-08-03T22:25:37.093Z,57.00
2022-08-03T22:28:10.847Z,56.20
2022-08-03T22:30:43.016Z,56.90
2022-08-03T22:33:14.871Z,56.00
2022-08-03T22:35:48.971Z,56.40
2022-08-03T22:38:20.907Z,56.80
2022-08-03T22:40:52.191Z,57.30
2022-08-03T22:43:26.277Z,56.70
2022-08-03T22:46:10.539Z,56.70
2022-08-03T22:48:43.278Z,56.00
2022-08-03T22:51:17.008Z,56.40
2022-08-03T22:53:48.721Z,58.60
2022-08-03T22:56:19.432Z,56.70
2022-08-03T22:58:51.194Z,56.40
2022-08-03T23:01:25.670Z,56.80
2022-08-03T23:04:05.326Z,55.90
2022-08-03T23:06:39.943Z,55.70
2022-08-03T23:09:11.956Z,56.30
2022-08-03T23:11:45.784Z,58.20
2022-08-03T23:14:18.440Z,59.70
2022-08-03T23:16:53.168Z,59.00
2022-08-03T23:19:27.769Z,59.70
2022-08-03T23:22:06.652Z,61.10
2022-08-03T23:24:59.297Z,61.10
2022-08-03T23:27:31.008Z,61.50
2022-08-03T23:30:02.459Z,63.90
2022-08-03T23:32:34.167Z,66.00
2022-08-03T23:35:24.189Z,66.30
2022-08-03T23:38:22.164Z,64.60
2022-08-03T23:40:54.007Z,64.40
2022-08-03T23:43:51.621Z,64.70
2022-08-03T23:46:18.748Z,65.10
2022-08-03T23:48:49.501Z,66.10
2022-08-03T23:51:30.822Z,65.50
2022-08-03T23:54:18.071Z,65.60
2022-08-03T23:56:56.975Z,66.00
2022-08-03T23:59:33.807Z,66.90
